Time;durP1;ratioP1;P1;durP2;ratioP2;P2;SDS_P1;SDS_P2;PMS_P1;PMS_P2;Temp;Humidity;BMP_temperature;BMP_pressure;BME280_temperature;BME280_humidity;BME280_pressure;Samples;Min_cycle;Max_cycle;Signal;HPM_P1;HPM_P2
2023/01/17 00:01:08;;;;;;;3.33;1.33;;;9.30;93.90;;;;;;5071893;28;20477;-60
2023/01/17 00:11:54;;;;;;;2.13;1.02;;;9.30;93.70;;;;;;5075759;28;20166;-60
2023/01/17 00:14:20;;;;;;;2.67;0.93;;;9.30;93.60;;;;;;5075511;28;20103;-60
2023/01/17 00:16:45;;;;;;;3.42;1.00;;;9.20;93.50;;;;;;5075529;28;20029;-61
2023/01/17 01:33:51;;;;;;;5.03;3.03;;;8.70;93.30;;;;;;5074424;28;20098;-59
2023/01/17 01:36:16;;;;;;;4.13;2.05;;;8.70;93.30;;;;;;5074448;28;20431;-59
2023/01/17 01:38:42;;;;;;;4.47;2.22;;;8.60;93.30;;;;;;5074231;28;20482;-62
2023/01/17 01:41:07;;;;;;;5.28;2.08;;;8.60;93.30;;;;;;5073860;28;20048;-59
2023/01/17 01:43:53;;;;;;;6.72;2.35;;;8.60;93.20;;;;;;5074090;28;20095;-59
2023/01/17 01:46:36;;;;;;;4.72;2.03;;;8.60;93.10;;;;;;5068176;28;20028;-59
2023/01/17 01:49:15;;;;;;;6.28;2.08;;;8.50;93.20;;;;;;5063692;28;20116;-59
2023/01/17 01:51:48;;;;;;;6.20;2.03;;;8.50;93.30;;;;;;5051321;28;20036;-59
2023/01/17 01:54:29;;;;;;;5.60;2.22;;;8.50;93.30;;;;;;5052162;28;20116;-59
2023/01/17 01:57:00;;;;;;;5.43;1.80;;;8.50;93.60;;;;;;5052233;28;20025;-59
2023/01/17 01:59:26;;;;;;;3.78;1.90;;;8.50;93.90;;;;;;5053865;28;20021;-60
2023/01/17 02:01:55;;;;;;;6.25;2.00;;;8.50;93.30;;;;;;5053558;28;20478;-59
2023/01/17 02:04:22;;;;;;;3.97;2.28;;;8.60;93.00;;;;;;5053852;28;20025;-59
2023/01/17 02:06:54;;;;;;;6.57;2.53;;;8.60;93.20;;;;;;5053487;28;20075;-59
2023/01/17 02:09:20;;;;;;;5.03;2.15;;;8.70;93.00;;;;;;5053333;28;20037;-60
2023/01/17 02:11:47;;;;;;;5.43;2.25;;;8.60;93.10;;;;;;5053574;28;20108;-60
2023/01/17 02:14:17;;;;;;;6.00;2.33;;;8.60;93.00;;;;;;5053496;28;20064;-59
2023/01/17 02:16:52;;;;;;;4.70;1.77;;;8.60;93.10;;;;;;5053416;28;20158;-59
2023/01/17 02:19:54;;;;;;;3.53;1.63;;;8.60;93.10;;;;;;5053451;28;20131;-60
2023/01/17 02:23:06;;;;;;;5.05;2.40;;;8.60;93.10;;;;;;5053136;28;20029;-60
2023/01/17 02:26:13;;;;;;;8.70;2.58;;;8.60;92.80;;;;;;5053142;28;20039;-59
2023/01/17 02:29:06;;;;;;;5.20;2.15;;;8.60;92.70;;;;;;5052640;28;20067;-59
2023/01/17 02:31:55;;;;;;;4.90;1.88;;;8.50;92.80;;;;;;5053324;28;20051;-60
2023/01/17 02:34:31;;;;;;;6.25;3.10;;;8.50;93.00;;;;;;5047344;28;20033;-60
2023/01/17 02:37:47;;;;;;;5.82;2.58;;;8.50;92.90;;;;;;5053075;28;20052;-59
2023/01/17 02:40:19;;;;;;;11.38;2.83;;;8.50;92.90;;;;;;5035277;28;20041;-61
2023/01/17 02:42:51;;;;;;;11.10;2.47;;;8.40;93.00;;;;;;5053031;28;20075;-61
2023/01/17 02:45:18;;;;;;;5.07;2.95;;;8.40;92.80;;;;;;5053160;28;20029;-59
2023/01/17 02:47:44;;;;;;;7.82;2.83;;;8.40;93.00;;;;;;5052817;28;20021;-60
2023/01/17 02:50:16;;;;;;;8.27;2.75;;;8.40;92.90;;;;;;5052847;28;20037;-60
2023/01/17 02:52:53;;;;;;;4.88;2.13;;;8.30;92.80;;;;;;5052832;28;20074;-60
2023/01/17 02:55:40;;;;;;;8.65;2.72;;;8.30;92.80;;;;;;5052795;28;20033;-62
2023/01/17 02:58:14;;;;;;;7.97;1.80;;;8.30;92.70;;;;;;5052725;28;20116;-60
2023/01/17 03:00:49;;;;;;;4.55;2.22;;;8.30;92.80;;;;;;5052841;28;20021;-59
2023/01/17 03:03:33;;;;;;;5.70;2.35;;;8.20;92.90;;;;;;5052388;28;20029;-60
2023/01/17 03:06:16;;;;;;;6.45;2.22;;;8.20;92.90;;;;;;5052750;28;20544;-59
2023/01/17 03:08:45;;;;;;;5.85;2.22;;;8.20;92.90;;;;;;5052287;28;20028;-60
2023/01/17 03:11:12;;;;;;;6.78;2.60;;;8.20;92.80;;;;;;5052572;28;20470;-59
2023/01/17 03:13:37;;;;;;;3.25;1.98;;;8.20;92.80;;;;;;5052323;28;20466;-59
2023/01/17 03:16:07;;;;;;;8.13;2.78;;;8.20;92.90;;;;;;5052642;28;20115;-59
2023/01/17 03:18:33;;;;;;;6.60;2.97;;;8.10;93.10;;;;;;5052460;28;20049;-59
2023/01/17 03:20:59;;;;;;;9.48;2.85;;;8.10;92.80;;;;;;5052560;28;20064;-59
2023/01/17 03:23:25;;;;;;;4.53;2.22;;;8.10;92.90;;;;;;5052106;28;20057;-59
2023/01/17 03:25:50;;;;;;;8.07;2.53;;;8.00;92.80;;;;;;5052568;28;20033;-59
2023/01/17 03:28:16;;;;;;;5.25;2.60;;;8.00;92.80;;;;;;5052119;28;20021;-60
2023/01/17 03:30:41;;;;;;;6.53;2.30;;;8.00;92.80;;;;;;5052301;28;20128;-59
2023/01/17 03:33:07;;;;;;;7.40;2.47;;;8.00;92.70;;;;;;5052472;28;20025;-59
2023/01/17 03:35:33;;;;;;;8.48;2.67;;;8.00;92.90;;;;;;5052408;28;20021;-59
2023/01/17 03:37:58;;;;;;;6.25;2.88;;;8.00;93.00;;;;;;5051964;28;20489;-59
2023/01/17 03:40:24;;;;;;;6.20;2.20;;;7.90;92.80;;;;;;5052254;28;20492;-59
2023/01/17 03:42:49;;;;;;;6.60;2.75;;;7.80;92.80;;;;;;5056419;28;20035;-59
2023/01/17 03:45:15;;;;;;;7.50;2.53;;;7.90;92.80;;;;;;5072811;28;20473;-60
2023/01/17 03:47:41;;;;;;;5.45;2.58;;;7.90;92.90;;;;;;5076200;28;20052;-59
2023/01/17 03:50:07;;;;;;;7.35;2.55;;;7.80;93.00;;;;;;5074777;28;20378;-60
2023/01/17 03:52:32;;;;;;;3.58;2.25;;;7.80;93.40;;;;;;5075972;28;20024;-59
2023/01/17 03:54:58;;;;;;;8.23;2.47;;;7.80;93.00;;;;;;5076188;28;20110;-60
2023/01/17 03:57:24;;;;;;;6.43;2.45;;;7.80;93.10;;;;;;5076071;28;20024;-59
2023/01/17 03:59:49;;;;;;;6.75;2.70;;;7.70;93.10;;;;;;5076109;28;20024;-59
2023/01/17 04:02:15;;;;;;;7.53;2.95;;;7.60;93.20;;;;;;5076135;28;20012;-59
2023/01/17 04:04:40;;;;;;;5.30;2.85;;;7.70;93.00;;;;;;5075964;28;20028;-60
2023/01/17 04:07:06;;;;;;;5.30;2.53;;;7.60;93.10;;;;;;5075594;28;20362;-60
2023/01/17 04:09:33;;;;;;;8.45;3.33;;;7.60;93.10;;;;;;5075886;28;20037;-59
2023/01/17 04:11:59;;;;;;;5.95;2.75;;;7.60;93.00;;;;;;5075856;28;20035;-59
2023/01/17 04:14:25;;;;;;;5.00;2.35;;;7.50;93.10;;;;;;5075693;28;20033;-59
2023/01/17 04:16:52;;;;;;;5.28;2.63;;;7.60;93.10;;;;;;5075745;28;20025;-59
2023/01/17 04:19:17;;;;;;;4.03;2.17;;;7.60;93.10;;;;;;5075635;28;20035;-59
2023/01/17 04:21:43;;;;;;;4.47;3.03;;;7.50;93.20;;;;;;5075274;28;20017;-59
2023/01/17 04:24:08;;;;;;;6.05;2.53;;;7.50;93.20;;;;;;5075698;28;20077;-59
2023/01/17 04:26:34;;;;;;;7.40;2.78;;;7.30;93.30;;;;;;5075380;28;20481;-59
2023/01/17 04:29:00;;;;;;;6.45;2.60;;;7.40;93.40;;;;;;5075385;28;20504;-59
2023/01/17 04:31:25;;;;;;;5.60;2.42;;;7.40;93.30;;;;;;5075188;28;20482;-60
2023/01/17 04:33:51;;;;;;;6.88;3.05;;;7.30;93.30;;;;;;5075503;28;20024;-59
2023/01/17 04:36:16;;;;;;;6.95;3.10;;;7.30;93.50;;;;;;5075100;28;20036;-59
2023/01/17 04:38:42;;;;;;;7.53;3.53;;;7.30;93.60;;;;;;5075390;28;20031;-59
2023/01/17 04:41:08;;;;;;;6.97;3.65;;;7.30;93.50;;;;;;5075259;28;20044;-59
2023/01/17 04:43:33;;;;;;;9.38;3.17;;;7.30;93.40;;;;;;5075346;28;20326;-60
2023/01/17 04:45:59;;;;;;;8.50;3.65;;;7.30;93.50;;;;;;5075146;28;20508;-58
2023/01/17 04:48:26;;;;;;;5.65;3.10;;;7.20;93.50;;;;;;5075171;28;20557;-59
2023/01/17 04:50:58;;;;;;;7.00;3.35;;;7.20;93.50;;;;;;5074742;28;20068;-59
2023/01/17 04:53:24;;;;;;;5.93;3.03;;;7.20;93.60;;;;;;5074317;28;20031;-59
2023/01/17 04:55:49;;;;;;;5.28;3.83;;;7.20;93.70;;;;;;5074774;28;20028;-63
2023/01/17 04:58:15;;;;;;;7.20;3.25;;;7.20;93.70;;;;;;5075160;28;20104;-60
2023/01/17 05:00:40;;;;;;;7.45;2.92;;;7.10;93.80;;;;;;5074700;28;20099;-60
2023/01/17 05:03:06;;;;;;;5.70;3.65;;;7.10;94.10;;;;;;5075149;28;20020;-60
2023/01/17 05:05:31;;;;;;;10.65;3.70;;;7.10;94.10;;;;;;5074519;28;20025;-59
2023/01/17 05:07:58;;;;;;;8.43;3.60;;;7.10;93.80;;;;;;5074778;28;20538;-60
2023/01/17 05:10:24;;;;;;;7.82;3.50;;;7.00;93.90;;;;;;5074986;28;20037;-59
2023/01/17 05:12:58;;;;;;;7.03;4.03;;;7.00;93.90;;;;;;5074972;28;20020;-59
2023/01/17 05:15:25;;;;;;;5.35;3.60;;;7.10;93.80;;;;;;5075044;28;20069;-59
2023/01/17 05:17:51;;;;;;;9.30;4.32;;;7.10;93.60;;;;;;5074464;28;20024;-59
2023/01/17 05:20:21;;;;;;;5.72;3.78;;;7.10;93.70;;;;;;5074633;28;20100;-59
2023/01/17 05:22:55;;;;;;;9.52;3.63;;;7.10;93.90;;;;;;5074462;28;20024;-59
2023/01/17 05:25:22;;;;;;;6.18;4.35;;;7.10;93.80;;;;;;5074546;28;20389;-59
2023/01/17 05:27:48;;;;;;;5.65;3.58;;;7.10;93.90;;;;;;5074643;28;20025;-59
2023/01/17 05:30:13;;;;;;;7.68;3.90;;;7.00;93.80;;;;;;5074202;28;20428;-59
2023/01/17 05:32:40;;;;;;;7.72;4.30;;;7.00;93.90;;;;;;5073893;28;20028;-59
2023/01/17 05:35:06;;;;;;;6.38;4.75;;;6.90;94.00;;;;;;5074549;28;20487;-59
2023/01/17 05:37:32;;;;;;;6.93;4.10;;;6.90;93.80;;;;;;5073965;28;20029;-60
2023/01/17 05:39:57;;;;;;;6.13;4.28;;;7.00;93.80;;;;;;5074287;28;20086;-59
2023/01/17 05:42:23;;;;;;;8.68;4.50;;;7.00;93.60;;;;;;5074139;28;20542;-59
2023/01/17 05:44:48;;;;;;;9.48;4.32;;;7.00;93.70;;;;;;5074060;28;20028;-59
2023/01/17 05:47:14;;;;;;;6.85;4.55;;;7.00;93.60;;;;;;5073889;28;20062;-59
2023/01/17 05:49:39;;;;;;;8.73;4.10;;;7.00;93.60;;;;;;5073823;28;20036;-59
2023/01/17 05:52:05;;;;;;;6.93;3.67;;;7.00;95.70;;;;;;5073770;28;20036;-58
2023/01/17 05:54:30;;;;;;;8.13;4.10;;;7.10;96.10;;;;;;5074111;28;20028;-58
2023/01/17 05:56:56;;;;;;;7.13;3.78;;;7.10;96.10;;;;;;5073799;28;20039;-59
2023/01/17 05:59:21;;;;;;;6.03;3.45;;;7.20;96.10;;;;;;5074001;28;20500;-59
2023/01/17 06:01:47;;;;;;;8.95;3.28;;;7.20;95.90;;;;;;5068672;28;20020;-59
2023/01/17 06:04:12;;;;;;;5.13;3.35;;;7.30;96.00;;;;;;5056470;28;20043;-59
2023/01/17 06:06:38;;;;;;;6.82;3.60;;;7.30;95.90;;;;;;5052037;28;20030;-59
2023/01/17 06:09:03;;;;;;;7.47;3.85;;;7.30;95.90;;;;;;5052043;28;20021;-58
2023/01/17 06:11:29;;;;;;;8.90;3.90;;;7.20;95.80;;;;;;5053803;28;20032;-59
2023/01/17 06:13:54;;;;;;;8.40;3.58;;;7.20;95.80;;;;;;5053547;28;20470;-64
2023/01/17 06:16:20;;;;;;;7.20;3.45;;;7.30;96.00;;;;;;5052368;28;20021;-59
2023/01/17 06:18:45;;;;;;;7.68;4.15;;;7.20;95.80;;;;;;5053364;28;20414;-59
2023/01/17 06:21:11;;;;;;;6.55;4.10;;;7.30;96.00;;;;;;5053530;28;20052;-59
2023/01/17 06:23:37;;;;;;;5.80;3.30;;;7.20;95.90;;;;;;5053274;28;20592;-63
2023/01/17 06:26:09;;;;;;;6.53;4.00;;;7.30;95.90;;;;;;5083571;27;1229126;-62
2023/01/17 06:28:35;;;;;;;6.13;3.58;;;7.30;95.90;;;;;;5096780;28;20047;-59
2023/01/17 06:31:07;;;;;;;5.25;3.72;;;7.20;95.90;;;;;;5098985;28;20469;-59
2023/01/17 06:33:33;;;;;;;4.55;3.83;;;7.20;95.90;;;;;;5095323;28;20031;-58
2023/01/17 06:35:59;;;;;;;5.47;4.00;;;7.20;95.90;;;;;;5092457;28;20025;-65
2023/01/17 06:38:26;;;;;;;9.15;3.70;;;7.20;95.90;;;;;;5079523;28;20535;-63
2023/01/17 06:40:53;;;;;;;8.40;3.75;;;7.20;95.90;;;;;;5090188;28;20520;-62
2023/01/17 06:43:19;;;;;;;5.95;3.60;;;7.20;95.70;;;;;;5078053;28;20020;-61
2023/01/17 06:45:44;;;;;;;16.02;5.28;;;7.30;96.20;;;;;;5084765;28;20047;-71
2023/01/17 06:48:10;;;;;;;9.50;5.47;;;7.30;95.20;;;;;;5085678;28;20028;-59
2023/01/17 06:50:36;;;;;;;10.68;5.97;;;7.30;93.80;;;;;;5085613;28;20025;-60
2023/01/17 06:53:05;;;;;;;9.80;5.93;;;7.30;93.30;;;;;;5080764;28;20044;-59
2023/01/17 06:55:32;;;;;;;8.43;5.68;;;7.30;93.10;;;;;;5085488;28;20016;-60
2023/01/17 06:57:58;;;;;;;11.20;6.05;;;7.30;93.10;;;;;;5083939;28;20032;-59
2023/01/17 07:00:27;;;;;;;9.35;6.05;;;7.30;93.40;;;;;;5087044;28;20200;-65
2023/01/17 07:02:53;;;;;;;10.50;5.30;;;7.20;93.10;;;;;;5087466;28;20485;-59
2023/01/17 07:05:20;;;;;;;10.05;5.70;;;7.20;93.30;;;;;;5081517;28;20055;-58
2023/01/17 07:07:45;;;;;;;7.28;5.72;;;7.20;93.20;;;;;;5086145;28;20102;-58
2023/01/17 07:10:13;;;;;;;11.63;6.97;;;7.20;93.20;;;;;;5079780;28;20066;-60
2023/01/17 07:12:39;;;;;;;14.07;6.18;;;7.10;93.30;;;;;;5087936;28;20021;-58
2023/01/17 07:15:06;;;;;;;11.55;6.75;;;6.90;94.20;;;;;;5086299;28;20031;-58
2023/01/17 07:17:33;;;;;;;16.83;11.00;;;7.00;93.60;;;;;;5082060;28;20036;-63
2023/01/17 07:19:58;;;;;;;12.88;7.25;;;7.00;93.50;;;;;;5073782;28;20044;-58
2023/01/17 07:22:24;;;;;;;7.50;6.35;;;6.80;94.10;;;;;;5074208;28;20012;-60
2023/01/17 07:24:50;;;;;;;9.45;5.97;;;6.70;94.00;;;;;;5087321;28;20040;-58
2023/01/17 07:27:15;;;;;;;11.05;6.00;;;6.80;94.10;;;;;;5070765;28;20020;-59
2023/01/17 07:29:41;;;;;;;10.98;6.63;;;6.80;94.00;;;;;;5086748;28;20044;-58
2023/01/17 07:32:07;;;;;;;10.95;8.00;;;6.70;94.00;;;;;;5083741;28;20489;-59
2023/01/17 07:34:33;;;;;;;10.55;7.90;;;6.60;94.00;;;;;;5087812;28;20161;-58
2023/01/17 07:36:59;;;;;;;11.13;6.45;;;6.40;94.60;;;;;;5077183;28;20515;-61
2023/01/17 07:39:24;;;;;;;13.52;7.63;;;6.40;94.90;;;;;;5072364;28;20035;-59
2023/01/17 07:41:50;;;;;;;10.77;7.72;;;6.50;94.90;;;;;;5073317;28;20043;-64
2023/01/17 07:44:15;;;;;;;15.32;8.82;;;6.60;94.10;;;;;;5068724;28;20134;-59
2023/01/17 07:46:41;;;;;;;17.52;8.07;;;6.60;93.90;;;;;;5084782;28;20097;-59
2023/01/17 07:49:06;;;;;;;9.60;7.07;;;6.70;93.90;;;;;;5074172;28;20020;-59
2023/01/17 07:51:32;;;;;;;15.23;10.68;;;6.60;93.90;;;;;;5069874;28;20362;-60
2023/01/17 07:53:57;;;;;;;59.10;33.47;;;6.50;94.10;;;;;;5062594;28;20147;-63
2023/01/17 07:56:23;;;;;;;54.17;30.73;;;6.50;94.10;;;;;;5070103;28;20496;-62
2023/01/17 07:58:49;;;;;;;21.08;12.90;;;6.60;94.00;;;;;;5074993;28;20027;-68
2023/01/17 08:01:15;;;;;;;13.52;9.02;;;6.50;94.00;;;;;;5073701;28;20055;-66
2023/01/17 08:03:41;;;;;;;12.30;8.70;;;6.50;94.20;;;;;;5056868;28;20017;-60
2023/01/17 08:06:24;;;;;;;15.90;8.18;;;6.50;94.10;;;;;;5074227;28;20095;-59
2023/01/17 08:08:55;;;;;;;13.25;7.82;;;6.60;94.10;;;;;;5073984;28;20110;-60
2023/01/17 08:11:20;;;;;;;11.63;8.00;;;6.50;94.10;;;;;;5072949;28;20032;-59
2023/01/17 08:13:47;;;;;;;11.00;8.27;;;6.50;94.30;;;;;;5072309;28;20107;-60
2023/01/17 08:16:13;;;;;;;13.32;9.13;;;6.50;94.30;;;;;;5070028;28;20060;-59
2023/01/17 08:18:39;;;;;;;14.32;10.05;;;6.50;94.40;;;;;;5069792;28;20109;-59
2023/01/17 08:21:14;;;;;;;16.10;10.38;;;6.50;94.30;;;;;;5062971;28;20474;-60
2023/01/17 08:23:39;;;;;;;12.60;9.15;;;6.50;94.30;;;;;;5070757;28;20105;-60
2023/01/17 08:26:05;;;;;;;12.68;8.77;;;6.50;94.30;;;;;;5074013;28;20083;-59
2023/01/17 08:28:30;;;;;;;12.80;8.65;;;6.40;94.50;;;;;;5071542;28;20035;-60
2023/01/17 08:30:56;;;;;;;14.15;9.18;;;6.50;94.50;;;;;;5054848;28;20028;-61
2023/01/17 08:33:21;;;;;;;15.32;9.75;;;6.40;94.80;;;;;;5074014;28;20024;-60
2023/01/17 08:35:54;;;;;;;15.38;9.55;;;6.50;94.60;;;;;;5053907;28;20056;-60
2023/01/17 08:38:22;;;;;;;16.88;9.88;;;6.50;94.50;;;;;;5053943;28;20528;-62
2023/01/17 08:40:49;;;;;;;15.13;9.93;;;6.40;94.40;;;;;;5062617;28;20090;-65
2023/01/17 08:43:14;;;;;;;13.57;9.68;;;6.40;94.40;;;;;;5072961;28;20012;-59
2023/01/17 08:45:42;;;;;;;14.90;10.18;;;6.50;94.40;;;;;;5068693;28;20059;-60
2023/01/17 08:48:08;;;;;;;14.00;9.95;;;6.40;94.40;;;;;;5069838;28;20615;-59
2023/01/17 08:50:33;;;;;;;14.77;9.77;;;6.40;94.50;;;;;;5073605;28;20039;-60
2023/01/17 08:52:59;;;;;;;12.30;9.18;;;6.40;94.60;;;;;;5067693;28;20082;-60
2023/01/17 08:55:25;;;;;;;15.32;9.98;;;6.50;94.50;;;;;;5072637;28;20051;-65
2023/01/17 08:57:50;;;;;;;12.02;9.95;;;6.60;94.40;;;;;;5072816;28;20027;-60
2023/01/17 09:00:16;;;;;;;16.70;11.55;;;6.70;94.10;;;;;;5072956;28;20028;-62
2023/01/17 09:02:42;;;;;;;16.52;10.70;;;6.80;94.10;;;;;;5073093;28;20497;-63
2023/01/17 09:05:08;;;;;;;14.10;10.02;;;6.70;94.00;;;;;;5073306;28;20036;-63
2023/01/17 09:07:33;;;;;;;15.43;11.98;;;6.70;94.10;;;;;;5069517;28;20399;-64
2023/01/17 09:09:59;;;;;;;12.70;10.85;;;6.70;94.60;;;;;;5071890;28;20078;-59
2023/01/17 09:12:25;;;;;;;14.60;10.50;;;6.70;94.50;;;;;;5073328;28;20020;-60
2023/01/17 09:14:50;;;;;;;13.35;10.63;;;6.50;94.90;;;;;;5070006;28;20028;-59
2023/01/17 09:17:16;;;;;;;19.23;11.80;;;6.50;95.00;;;;;;5073128;28;20025;-62
2023/01/17 09:19:44;;;;;;;17.58;12.93;;;6.40;95.20;;;;;;5071706;28;20036;-59
2023/01/17 09:22:10;;;;;;;13.75;10.02;;;6.40;95.50;;;;;;5072729;28;20023;-66
2023/01/17 09:24:36;;;;;;;14.82;9.80;;;6.40;95.40;;;;;;5070591;28;20462;-61
2023/01/17 09:27:02;;;;;;;15.90;10.43;;;6.50;95.50;;;;;;5070275;28;20045;-62
2023/01/17 09:29:28;;;;;;;17.08;9.50;;;6.50;95.30;;;;;;5073097;28;20033;-60
2023/01/17 09:31:54;;;;;;;13.25;8.80;;;6.50;95.30;;;;;;5068951;28;20055;-61
2023/01/17 09:34:20;;;;;;;13.23;8.60;;;6.50;95.50;;;;;;5072040;28;20047;-59
2023/01/17 09:36:45;;;;;;;15.20;8.93;;;6.50;95.90;;;;;;5072064;28;20012;-62
2023/01/17 09:39:13;;;;;;;11.35;8.48;;;6.60;95.20;;;;;;5072355;28;20294;-65
2023/01/17 09:42:00;;;;;;;15.65;8.75;;;6.60;95.10;;;;;;5073017;28;20035;-65
2023/01/17 09:44:41;;;;;;;12.75;9.63;;;6.60;95.30;;;;;;5069786;28;20047;-60
2023/01/17 09:47:19;;;;;;;9.18;7.13;;;6.50;95.60;;;;;;5072520;28;20447;-60
2023/01/17 09:49:45;;;;;;;14.27;9.55;;;6.60;95.90;;;;;;5068371;28;20367;-62
2023/01/17 09:52:16;;;;;;;13.38;8.80;;;6.50;95.90;;;;;;5070760;28;20028;-63
2023/01/17 09:54:44;;;;;;;16.35;8.45;;;6.50;95.70;;;;;;5053203;28;20466;-60
2023/01/17 09:57:47;;;;;;;13.30;8.73;;;6.60;95.80;;;;;;5072233;28;20124;-59
2023/01/17 10:00:12;;;;;;;12.63;8.82;;;6.60;96.60;;;;;;5062278;28;20035;-59
2023/01/17 10:03:22;;;;;;;16.63;9.88;;;6.60;96.00;;;;;;5069073;28;20041;-59
2023/01/17 10:06:18;;;;;;;14.70;9.57;;;6.60;95.70;;;;;;5061402;28;20041;-59
2023/01/17 10:08:59;;;;;;;12.35;9.30;;;6.60;95.70;;;;;;5068765;28;20458;-64
2023/01/17 10:11:30;;;;;;;14.98;10.50;;;6.60;95.60;;;;;;5072565;28;20029;-60
2023/01/17 10:14:07;;;;;;;13.15;9.43;;;6.60;96.10;;;;;;5071477;28;20036;-66
2023/01/17 10:16:40;;;;;;;18.85;11.52;;;6.60;96.10;;;;;;5071686;28;20029;-60
2023/01/17 10:19:28;;;;;;;15.48;10.02;;;6.60;96.10;;;;;;5072270;28;20048;-64
2023/01/17 10:22:13;;;;;;;13.68;9.68;;;6.70;95.90;;;;;;5064059;28;20032;-70
2023/01/17 10:25:14;;;;;;;14.25;8.18;;;6.60;96.30;;;;;;5071860;28;20039;-64
2023/01/17 10:27:47;;;;;;;14.30;8.43;;;6.70;96.10;;;;;;5071361;28;20025;-65
2023/01/17 10:30:35;;;;;;;11.27;7.55;;;6.60;96.10;;;;;;5073512;28;20028;-60
2023/01/17 10:33:13;;;;;;;10.93;7.78;;;6.70;96.40;;;;;;5071708;28;20031;-61
2023/01/17 10:35:48;;;;;;;12.55;8.50;;;6.70;97.10;;;;;;5071264;28;20024;-60
2023/01/17 10:38:16;;;;;;;14.65;8.05;;;6.80;96.50;;;;;;5072020;28;20110;-60
2023/01/17 10:40:50;;;;;;;12.48;8.32;;;6.80;95.80;;;;;;5071885;28;20553;-61
2023/01/17 10:43:38;;;;;;;14.20;7.88;;;6.80;95.60;;;;;;5071842;28;20572;-60
2023/01/17 10:46:04;;;;;;;13.10;7.47;;;6.80;95.50;;;;;;5071961;28;20093;-59
2023/01/17 10:48:35;;;;;;;8.65;5.93;;;6.70;95.70;;;;;;5072221;28;20025;-68
2023/01/17 10:51:25;;;;;;;10.50;6.85;;;6.80;97.00;;;;;;5071556;28;20499;-66
2023/01/17 10:53:59;;;;;;;13.32;7.60;;;6.90;95.60;;;;;;5052071;28;20024;-59
2023/01/17 10:56:27;;;;;;;9.95;7.10;;;6.90;95.30;;;;;;5071180;28;20032;-59
2023/01/17 10:59:14;;;;;;;10.98;7.20;;;6.90;95.20;;;;;;5053354;28;20062;-61
2023/01/17 11:01:40;;;;;;;9.55;8.07;;;6.90;95.10;;;;;;5071523;28;20109;-64
2023/01/17 11:04:35;;;;;;;11.93;7.05;;;6.90;95.20;;;;;;5071820;28;20377;-60
2023/01/17 11:07:16;;;;;;;13.85;7.97;;;6.90;95.00;;;;;;5069083;28;20119;-68
2023/01/17 11:09:48;;;;;;;12.23;6.68;;;6.90;94.90;;;;;;5071468;28;20024;-69
2023/01/17 11:12:22;;;;;;;11.43;6.38;;;6.90;95.40;;;;;;5074568;28;20389;-65
2023/01/17 11:15:07;;;;;;;9.95;7.03;;;6.90;95.40;;;;;;5075418;28;20027;-65
2023/01/17 11:17:36;;;;;;;8.50;6.35;;;7.00;95.10;;;;;;5075838;28;20063;-68
2023/01/17 11:20:21;;;;;;;12.10;6.65;;;6.90;95.20;;;;;;5075703;28;20074;-66
2023/01/17 11:23:13;;;;;;;11.18;5.75;;;7.00;95.10;;;;;;5075561;28;20077;-68
2023/01/17 11:25:47;;;;;;;12.63;6.18;;;7.00;95.20;;;;;;5076656;28;20036;-60
2023/01/17 11:28:20;;;;;;;9.43;5.88;;;6.90;95.20;;;;;;5071689;28;20529;-60
2023/01/17 11:30:55;;;;;;;11.27;6.05;;;7.00;95.40;;;;;;5075240;28;20081;-62
2023/01/17 11:33:46;;;;;;;9.93;5.97;;;7.00;95.40;;;;;;5075012;28;20103;-66
2023/01/17 11:36:33;;;;;;;9.07;5.28;;;7.00;95.80;;;;;;5074658;28;20485;-69
2023/01/17 11:39:03;;;;;;;10.82;5.47;;;7.00;95.50;;;;;;5073228;28;20363;-60
2023/01/17 11:41:33;;;;;;;7.20;5.03;;;7.00;95.70;;;;;;5074683;28;20111;-60
2023/01/17 11:43:59;;;;;;;9.90;4.80;;;7.10;95.20;;;;;;5074301;28;20036;-59
2023/01/17 11:46:28;;;;;;;7.25;4.43;;;7.10;95.00;;;;;;5074843;28;20110;-64
2023/01/17 11:48:58;;;;;;;7.07;4.20;;;7.10;95.20;;;;;;5062488;28;20025;-64
2023/01/17 11:51:30;;;;;;;8.02;4.50;;;7.10;95.00;;;;;;5067235;28;20042;-65
2023/01/17 11:54:15;;;;;;;8.07;4.60;;;7.20;94.90;;;;;;5074493;28;20024;-62
2023/01/17 11:56:44;;;;;;;7.45;4.45;;;7.20;94.90;;;;;;5074298;28;20032;-60
2023/01/17 11:59:25;;;;;;;7.82;4.95;;;7.20;94.80;;;;;;5074596;28;20028;-60
2023/01/17 12:02:30;;;;;;;13.15;4.40;;;7.20;94.70;;;;;;5072074;28;20055;-64
2023/01/17 12:05:27;;;;;;;9.40;3.45;;;7.30;94.90;;;;;;5072404;28;20119;-63
2023/01/17 12:08:03;;;;;;;6.93;3.33;;;7.30;95.10;;;;;;5062069;28;20610;-66
2023/01/17 12:10:55;;;;;;;7.35;3.45;;;7.30;94.40;;;;;;5066239;28;20031;-67
2023/01/17 12:13:59;;;;;;;8.60;4.03;;;7.40;94.00;;;;;;5073779;28;20037;-61
2023/01/17 12:16:28;;;;;;;6.85;3.95;;;7.40;93.60;;;;;;5074552;28;20032;-66
2023/01/17 12:19:06;;;;;;;9.32;3.20;;;7.50;93.80;;;;;;5072010;28;20127;-65
2023/01/17 12:22:06;;;;;;;8.38;3.30;;;7.40;93.70;;;;;;5072219;28;20028;-67
2023/01/17 12:24:41;;;;;;;6.32;4.03;;;7.40;93.10;;;;;;5072522;28;20036;-67
2023/01/17 12:27:37;;;;;;;9.85;4.07;;;7.40;93.30;;;;;;5074417;28;20119;-68
2023/01/17 12:30:22;;;;;;;14.48;3.88;;;7.50;93.20;;;;;;5074189;28;20032;-68
2023/01/17 12:33:19;;;;;;;11.35;4.45;;;7.50;93.50;;;;;;5058979;28;20170;-68
2023/01/17 12:35:58;;;;;;;9.35;3.55;;;7.50;93.30;;;;;;5044923;28;20040;-67
2023/01/17 12:38:35;;;;;;;12.32;3.92;;;7.50;92.90;;;;;;5062439;28;20070;-68
2023/01/17 12:41:30;;;;;;;6.93;3.15;;;7.50;92.80;;;;;;5068740;28;20029;-66
2023/01/17 12:43:59;;;;;;;13.75;3.40;;;7.50;93.10;;;;;;5071076;28;20019;-67
2023/01/17 12:46:37;;;;;;;11.02;4.10;;;7.50;93.60;;;;;;5073344;28;20127;-67
2023/01/17 12:49:17;;;;;;;5.00;2.33;;;7.50;94.10;;;;;;5070944;28;20044;-68
2023/01/17 12:51:49;;;;;;;7.18;3.22;;;7.60;96.30;;;;;;5068926;28;20485;-64
2023/01/17 12:54:32;;;;;;;11.43;3.13;;;7.70;94.10;;;;;;5069034;28;20363;-61
2023/01/17 12:57:23;;;;;;;6.65;2.90;;;7.80;92.90;;;;;;5073003;28;20056;-60
2023/01/17 13:00:18;;;;;;;10.18;3.67;;;7.80;92.60;;;;;;5061960;28;20036;-59
2023/01/17 13:02:58;;;;;;;6.47;3.22;;;7.70;93.40;;;;;;5057844;28;20028;-59
2023/01/17 13:05:28;;;;;;;5.93;3.13;;;7.60;93.00;;;;;;5072742;28;20123;-60
2023/01/17 13:08:00;;;;;;;8.65;3.22;;;7.70;93.70;;;;;;5072225;28;20017;-62
2023/01/17 13:10:31;;;;;;;;;;;7.70;93.50;;;;;;5071012;28;20032;-63
2023/01/17 13:13:12;;;;;;;5.40;2.20;;;7.70;93.20;;;;;;5072770;28;19915;-62
2023/01/17 13:15:40;;;;;;;6.68;1.98;;;7.80;93.10;;;;;;5054021;28;20502;-60
2023/01/17 13:18:13;;;;;;;8.98;2.17;;;7.80;93.50;;;;;;5070424;28;20427;-65
2023/01/17 13:21:15;;;;;;;5.10;2.22;;;7.90;94.10;;;;;;5054053;28;20025;-62
2023/01/17 13:23:57;;;;;;;11.43;2.30;;;8.00;94.00;;;;;;5070115;28;20525;-63
2023/01/17 13:26:47;;;;;;;5.35;1.42;;;8.10;91.70;;;;;;5072567;28;20485;-64
2023/01/17 13:29:44;;;;;;;5.55;1.73;;;8.10;91.90;;;;;;5072454;28;20489;-64
2023/01/17 13:32:40;;;;;;;9.25;2.35;;;8.10;92.40;;;;;;5067049;28;20111;-60
2023/01/17 13:35:23;;;;;;;6.07;1.58;;;8.20;91.40;;;;;;5064315;28;20105;-59
2023/01/17 13:38:19;;;;;;;6.50;1.67;;;8.10;90.90;;;;;;5055610;28;20558;-60
2023/01/17 13:41:25;;;;;;;2.95;2.00;;;8.10;91.30;;;;;;5052732;28;20132;-60
2023/01/17 13:47:05;;;;;;;5.65;1.15;;;8.20;91.20;;;;;;5072425;28;20406;-59
2023/01/17 13:49:52;;;;;;;4.97;1.85;;;8.30;91.40;;;;;;5069940;28;20052;-60
2023/01/17 13:52:17;;;;;;;4.90;1.33;;;8.30;91.00;;;;;;5065490;28;20111;-60
2023/01/17 13:54:45;;;;;;;3.35;1.00;;;8.20;88.80;;;;;;5072779;28;20063;-61
2023/01/17 13:57:24;;;;;;;3.42;0.98;;;8.20;86.50;;;;;;5072876;28;20124;-60
2023/01/17 13:59:51;;;;;;;8.82;1.52;;;8.20;88.40;;;;;;5071526;28;20042;-60
2023/01/17 14:02:31;;;;;;;3.92;1.05;;;8.20;88.30;;;;;;5071813;28;20040;-59
2023/01/17 14:05:31;;;;;;;2.65;1.20;;;8.20;88.00;;;;;;5070858;28;20086;-59
2023/01/17 14:08:00;;;;;;;2.47;1.15;;;8.30;87.30;;;;;;5071460;28;20055;-61
2023/01/17 14:10:39;;;;;;;2.53;1.00;;;8.20;87.90;;;;;;5071555;28;20025;-60
2023/01/17 14:13:23;;;;;;;4.95;1.17;;;8.20;87.70;;;;;;5070815;28;20044;-60
2023/01/17 14:15:50;;;;;;;4.22;1.50;;;8.30;86.60;;;;;;5070810;28;20413;-60
2023/01/17 14:18:35;;;;;;;4.60;1.30;;;8.30;88.30;;;;;;5072454;28;20025;-60
2023/01/17 14:21:09;;;;;;;4.57;0.90;;;8.30;88.60;;;;;;5070377;28;20081;-59
2023/01/17 14:24:02;;;;;;;4.20;1.30;;;8.40;87.30;;;;;;5067907;28;20145;-59
2023/01/17 14:26:43;;;;;;;7.00;1.15;;;8.50;85.40;;;;;;5068013;28;20076;-59
2023/01/17 14:29:50;;;;;;;5.53;1.48;;;8.40;84.10;;;;;;5069655;28;20032;-59
2023/01/17 14:32:22;;;;;;;2.85;1.02;;;8.30;83.10;;;;;;5066843;28;20065;-59
2023/01/17 14:34:50;;;;;;;8.00;1.52;;;8.30;81.80;;;;;;5067172;28;20025;-59
2023/01/17 14:37:28;;;;;;;7.13;1.48;;;8.30;82.60;;;;;;5071531;28;20034;-59
2023/01/17 14:39:54;;;;;;;4.35;1.67;;;8.30;86.20;;;;;;5069821;28;20024;-60
2023/01/17 14:42:23;;;;;;;5.55;1.55;;;8.30;85.60;;;;;;5072164;28;20027;-59
2023/01/17 14:44:54;;;;;;;4.20;1.70;;;8.40;85.20;;;;;;5071538;28;20036;-59
2023/01/17 14:47:21;;;;;;;4.97;1.00;;;8.50;83.30;;;;;;5074905;28;20116;-61